WMT2908 LIPH-LROP
Flight info
| Callsign | WMT2908 |
|---|---|
| Flight time | 1h 30m |
| Altitude | 35000 |
| Route | INBUT N503 LAREN Q561 AKADO L615 ROTAR DCT NAKIT DCT PUL DCT ENUPU DCT VELIP DCT TOSVI |
| Aircraft | A321/M-L/S |
Departure
| Time | 2026-04-15 10:27 |
|---|---|
| Airport | Treviso Airport (LIPH) |
Arrival
| Time | 2026-04-15 11:57 |
|---|---|
| Airport | Bucharest Henri Coandă International Airport (LROP) |
| Time | Latitude | Longitude | Altitude | Speed | Heading |
|---|---|---|---|---|---|
| 2026-04-15 10:05 | 45.65397 | 12.20483 | 62 ft | 0 kts | 339° |
| 2026-04-15 10:20 | 45.65384 | 12.20490 | 55 ft | 3 kts | 327° |
| 2026-04-15 10:20 | 45.65369 | 12.20503 | 56 ft | 2 kts | 348° |
| 2026-04-15 10:20 | 45.65352 | 12.20507 | 56 ft | 3 kts | 14° |
| 2026-04-15 10:20 | 45.65336 | 12.20496 | 57 ft | 3 kts | 51° |
| 2026-04-15 10:21 | 45.65327 | 12.20475 | 56 ft | 1 kts | 69° |
| 2026-04-15 10:21 | 45.65326 | 12.20472 | 56 ft | 0 kts | 69° |
| 2026-04-15 10:23 | 45.65327 | 12.20476 | 62 ft | 1 kts | 69° |
| 2026-04-15 10:23 | 45.65331 | 12.20493 | 56 ft | 3 kts | 69° |
| 2026-04-15 10:24 | 45.65339 | 12.20523 | 58 ft | 4 kts | 69° |
| 2026-04-15 10:24 | 45.65351 | 12.20566 | 55 ft | 5 kts | 68° |
| 2026-04-15 10:24 | 45.65367 | 12.20621 | 56 ft | 7 kts | 68° |
| 2026-04-15 10:24 | 45.65380 | 12.20688 | 56 ft | 7 kts | 93° |
| 2026-04-15 10:25 | 45.65342 | 12.20738 | 58 ft | 8 kts | 152° |
| 2026-04-15 10:25 | 45.65286 | 12.20771 | 61 ft | 9 kts | 159° |
| 2026-04-15 10:25 | 45.65236 | 12.20797 | 58 ft | 5 kts | 161° |
| 2026-04-15 10:25 | 45.65213 | 12.20776 | 62 ft | 4 kts | 239° |
| 2026-04-15 10:26 | 45.65206 | 12.20750 | 60 ft | 4 kts | 249° |
| 2026-04-15 10:26 | 45.65182 | 12.20659 | 57 ft | 30 kts | 249° |
| 2026-04-15 10:26 | 45.65008 | 12.20007 | 59 ft | 107 kts | 249° |
| 2026-04-15 10:26 | 45.64671 | 12.18732 | 74 ft | 164 kts | 249° |
| 2026-04-15 10:27 | 45.64254 | 12.17186 | 726 ft | 165 kts | 249° |
| 2026-04-15 10:27 | 45.63816 | 12.15669 | 1513 ft | 164 kts | 245° |
| 2026-04-15 10:27 | 45.63348 | 12.14143 | 2077 ft | 171 kts | 245° |
| 2026-04-15 10:27 | 45.62828 | 12.12494 | 2272 ft | 194 kts | 245° |
| 2026-04-15 10:28 | 45.62240 | 12.10634 | 2516 ft | 217 kts | 245° |
| 2026-04-15 10:28 | 45.61593 | 12.08583 | 2870 ft | 235 kts | 245° |
| 2026-04-15 10:28 | 45.60871 | 12.06363 | 3073 ft | 260 kts | 244° |
| 2026-04-15 10:28 | 45.60076 | 12.03937 | 3594 ft | 276 kts | 244° |
| 2026-04-15 10:29 | 45.59066 | 12.01633 | 4299 ft | 279 kts | 224° |
| 2026-04-15 10:29 | 45.57472 | 12.00037 | 5026 ft | 278 kts | 198° |
| 2026-04-15 10:29 | 45.55594 | 11.99552 | 5753 ft | 274 kts | 173° |
| 2026-04-15 10:29 | 45.53768 | 12.00207 | 6555 ft | 271 kts | 150° |
| 2026-04-15 10:30 | 45.52309 | 12.01802 | 7238 ft | 269 kts | 128° |
| 2026-04-15 10:30 | 45.51362 | 12.04130 | 7925 ft | 270 kts | 113° |
| 2026-04-15 10:30 | 45.50602 | 12.06547 | 8640 ft | 272 kts | 113° |
| 2026-04-15 10:30 | 45.49807 | 12.09057 | 9350 ft | 275 kts | 114° |
| 2026-04-15 10:31 | 45.49012 | 12.11553 | 10050 ft | 279 kts | 114° |
| 2026-04-15 10:31 | 45.48196 | 12.14109 | 10485 ft | 292 kts | 114° |
| 2026-04-15 10:31 | 45.47332 | 12.16806 | 10873 ft | 303 kts | 114° |
| 2026-04-15 10:31 | 45.46453 | 12.19544 | 11526 ft | 305 kts | 114° |
| 2026-04-15 10:32 | 45.45568 | 12.22299 | 12214 ft | 307 kts | 115° |
| 2026-04-15 10:32 | 45.44676 | 12.25068 | 12917 ft | 309 kts | 115° |
| 2026-04-15 10:32 | 45.43775 | 12.27862 | 13579 ft | 315 kts | 115° |
| 2026-04-15 10:32 | 45.42830 | 12.30784 | 13725 ft | 335 kts | 115° |
| 2026-04-15 10:33 | 45.41827 | 12.33877 | 13864 ft | 352 kts | 115° |
| 2026-04-15 10:33 | 45.40777 | 12.37116 | 14040 ft | 368 kts | 115° |
| 2026-04-15 10:33 | 45.39696 | 12.40462 | 14466 ft | 374 kts | 115° |
| 2026-04-15 10:33 | 45.38604 | 12.43840 | 15001 ft | 378 kts | 115° |
| 2026-04-15 10:34 | 45.37502 | 12.47246 | 15537 ft | 382 kts | 115° |
| 2026-04-15 10:34 | 45.36388 | 12.50679 | 16062 ft | 385 kts | 115° |
| 2026-04-15 10:34 | 45.35254 | 12.54168 | 16593 ft | 389 kts | 115° |
| 2026-04-15 10:34 | 45.34112 | 12.57675 | 17161 ft | 393 kts | 116° |
| 2026-04-15 10:35 | 45.32955 | 12.61213 | 17688 ft | 397 kts | 116° |
| 2026-04-15 10:35 | 45.31786 | 12.64781 | 18214 ft | 400 kts | 116° |
| 2026-04-15 10:35 | 45.30603 | 12.68391 | 18691 ft | 404 kts | 116° |
| 2026-04-15 10:35 | 45.29413 | 12.72025 | 19137 ft | 407 kts | 116° |
| 2026-04-15 10:36 | 45.28216 | 12.75683 | 19579 ft | 410 kts | 116° |
| 2026-04-15 10:36 | 45.27008 | 12.79363 | 20020 ft | 413 kts | 116° |
| 2026-04-15 10:36 | 45.25790 | 12.83067 | 20464 ft | 415 kts | 116° |
| 2026-04-15 10:36 | 45.24561 | 12.86796 | 20892 ft | 418 kts | 116° |
| 2026-04-15 10:37 | 45.23322 | 12.90543 | 21314 ft | 421 kts | 117° |
| 2026-04-15 10:37 | 45.22073 | 12.94315 | 21722 ft | 424 kts | 117° |
| 2026-04-15 10:37 | 45.20815 | 12.98112 | 22135 ft | 427 kts | 117° |
| 2026-04-15 10:37 | 45.19549 | 13.01930 | 22532 ft | 429 kts | 117° |
| 2026-04-15 10:38 | 45.18273 | 13.05775 | 22920 ft | 432 kts | 117° |
| 2026-04-15 10:38 | 45.16991 | 13.09635 | 23312 ft | 435 kts | 117° |
| 2026-04-15 10:38 | 45.15696 | 13.13526 | 23718 ft | 438 kts | 117° |
| 2026-04-15 10:38 | 45.14391 | 13.17442 | 24073 ft | 440 kts | 117° |
| 2026-04-15 10:39 | 45.13078 | 13.21377 | 24409 ft | 443 kts | 117° |
| 2026-04-15 10:39 | 45.11758 | 13.25325 | 24743 ft | 445 kts | 117° |
| 2026-04-15 10:39 | 45.10431 | 13.29287 | 25070 ft | 447 kts | 117° |
| 2026-04-15 10:39 | 45.09097 | 13.33266 | 25407 ft | 449 kts | 117° |
| 2026-04-15 10:40 | 45.07754 | 13.37266 | 25727 ft | 450 kts | 117° |
| 2026-04-15 10:40 | 45.06405 | 13.41275 | 26047 ft | 452 kts | 117° |
| 2026-04-15 10:40 | 45.05052 | 13.45289 | 26371 ft | 454 kts | 117° |
| 2026-04-15 10:40 | 45.03690 | 13.49326 | 26693 ft | 456 kts | 117° |
| 2026-04-15 10:41 | 45.02323 | 13.53380 | 27018 ft | 457 kts | 117° |
| 2026-04-15 10:41 | 45.00954 | 13.57438 | 27339 ft | 459 kts | 118° |
| 2026-04-15 10:41 | 44.99572 | 13.61520 | 27676 ft | 461 kts | 118° |
| 2026-04-15 10:41 | 44.98185 | 13.65611 | 28016 ft | 462 kts | 118° |
| 2026-04-15 10:42 | 44.96799 | 13.69693 | 28465 ft | 460 kts | 118° |
| 2026-04-15 10:42 | 44.95413 | 13.73766 | 28919 ft | 459 kts | 118° |
| 2026-04-15 10:42 | 44.94033 | 13.77812 | 29368 ft | 457 kts | 118° |
| 2026-04-15 10:42 | 44.92651 | 13.81849 | 29822 ft | 456 kts | 118° |
| 2026-04-15 10:43 | 44.91271 | 13.85872 | 30280 ft | 455 kts | 118° |
| 2026-04-15 10:43 | 44.90074 | 13.89949 | 30636 ft | 456 kts | 110° |
| 2026-04-15 10:43 | 44.89315 | 13.94367 | 30981 ft | 459 kts | 101° |
| 2026-04-15 10:43 | 44.89051 | 13.98794 | 31309 ft | 461 kts | 94° |
| 2026-04-15 10:44 | 44.88941 | 14.03366 | 31644 ft | 460 kts | 94° |
| 2026-04-15 10:44 | 44.88819 | 14.07866 | 31980 ft | 459 kts | 95° |
| 2026-04-15 10:44 | 44.88687 | 14.12365 | 32315 ft | 459 kts | 95° |
| 2026-04-15 10:44 | 44.88551 | 14.16799 | 32653 ft | 458 kts | 95° |
| 2026-04-15 10:45 | 44.88413 | 14.21333 | 32988 ft | 457 kts | 95° |
| 2026-04-15 10:45 | 44.88281 | 14.25812 | 33309 ft | 457 kts | 95° |
| 2026-04-15 10:45 | 44.88151 | 14.30289 | 33637 ft | 456 kts | 95° |
| 2026-04-15 10:45 | 44.88021 | 14.34696 | 33962 ft | 456 kts | 95° |
| 2026-04-15 10:46 | 44.87884 | 14.39218 | 34261 ft | 455 kts | 95° |
| 2026-04-15 10:46 | 44.87748 | 14.43616 | 34513 ft | 455 kts | 95° |
| 2026-04-15 10:46 | 44.87604 | 14.48128 | 34750 ft | 455 kts | 95° |
| 2026-04-15 10:46 | 44.87460 | 14.52583 | 34980 ft | 455 kts | 95° |
| 2026-04-15 10:47 | 44.87315 | 14.56991 | 35105 ft | 457 kts | 95° |
| 2026-04-15 10:47 | 44.87018 | 14.65997 | 35136 ft | 457 kts | 95° |
| 2026-04-15 10:48 | 44.86724 | 14.74909 | 35137 ft | 458 kts | 95° |
| 2026-04-15 10:48 | 44.86421 | 14.83915 | 35147 ft | 458 kts | 95° |
| 2026-04-15 10:49 | 44.86108 | 14.92891 | 35151 ft | 458 kts | 95° |
| 2026-04-15 10:49 | 44.85780 | 15.01867 | 35164 ft | 459 kts | 95° |
| 2026-04-15 10:50 | 44.85452 | 15.10839 | 35177 ft | 459 kts | 95° |
| 2026-04-15 10:50 | 44.85119 | 15.19774 | 35186 ft | 459 kts | 95° |
| 2026-04-15 10:51 | 44.84775 | 15.28743 | 35195 ft | 458 kts | 95° |
| 2026-04-15 10:51 | 44.84422 | 15.37754 | 35202 ft | 458 kts | 95° |
| 2026-04-15 10:52 | 44.84065 | 15.46663 | 35202 ft | 458 kts | 95° |
| 2026-04-15 10:52 | 44.83704 | 15.55617 | 35198 ft | 458 kts | 95° |
| 2026-04-15 10:53 | 44.83333 | 15.64577 | 35200 ft | 458 kts | 95° |
| 2026-04-15 10:53 | 44.82953 | 15.73590 | 35195 ft | 458 kts | 95° |
| 2026-04-15 10:54 | 44.82566 | 15.82555 | 35195 ft | 459 kts | 96° |
| 2026-04-15 10:54 | 44.82171 | 15.91534 | 35197 ft | 459 kts | 96° |
| 2026-04-15 10:55 | 44.81770 | 16.00510 | 35193 ft | 459 kts | 96° |
| 2026-04-15 10:55 | 44.81367 | 16.09490 | 35200 ft | 460 kts | 96° |
| 2026-04-15 10:56 | 44.80955 | 16.18481 | 35195 ft | 460 kts | 96° |
| 2026-04-15 10:56 | 44.80533 | 16.27483 | 35198 ft | 461 kts | 96° |
| 2026-04-15 10:57 | 44.80101 | 16.36491 | 35195 ft | 461 kts | 96° |
| 2026-04-15 10:57 | 44.79433 | 16.50019 | 35198 ft | 462 kts | 96° |
| 2026-04-15 10:58 | 44.78989 | 16.59031 | 35205 ft | 462 kts | 96° |
| 2026-04-15 10:58 | 44.78539 | 16.68046 | 35205 ft | 462 kts | 96° |
| 2026-04-15 10:59 | 44.78072 | 16.77073 | 35206 ft | 462 kts | 96° |
| 2026-04-15 10:59 | 44.77597 | 16.86099 | 35211 ft | 462 kts | 96° |
| 2026-04-15 11:00 | 44.77120 | 16.95108 | 35213 ft | 462 kts | 96° |
| 2026-04-15 11:00 | 44.76637 | 17.04129 | 35218 ft | 462 kts | 96° |
| 2026-04-15 11:01 | 44.76147 | 17.13149 | 35219 ft | 462 kts | 96° |
| 2026-04-15 11:01 | 44.75662 | 17.22162 | 35225 ft | 462 kts | 96° |
| 2026-04-15 11:02 | 44.75159 | 17.31189 | 35227 ft | 463 kts | 96° |
| 2026-04-15 11:02 | 44.74641 | 17.40204 | 35222 ft | 462 kts | 96° |
| 2026-04-15 11:03 | 44.74119 | 17.49208 | 35219 ft | 462 kts | 96° |
| 2026-04-15 11:03 | 44.73683 | 17.56690 | 35218 ft | 462 kts | 96° |
| 2026-04-15 11:04 | 44.73151 | 17.65677 | 35214 ft | 461 kts | 96° |
| 2026-04-15 11:04 | 44.72609 | 17.74668 | 35215 ft | 462 kts | 96° |
| 2026-04-15 11:05 | 44.72063 | 17.83673 | 35216 ft | 462 kts | 96° |
| 2026-04-15 11:05 | 44.71511 | 17.92663 | 35220 ft | 462 kts | 96° |
| 2026-04-15 11:06 | 44.70954 | 18.01645 | 35213 ft | 461 kts | 96° |
| 2026-04-15 11:06 | 44.70387 | 18.10624 | 35208 ft | 461 kts | 96° |
| 2026-04-15 11:07 | 44.69810 | 18.19599 | 35209 ft | 461 kts | 96° |
| 2026-04-15 11:07 | 44.69224 | 18.28559 | 35199 ft | 460 kts | 96° |
| 2026-04-15 11:08 | 44.68644 | 18.37520 | 35194 ft | 461 kts | 96° |
| 2026-04-15 11:08 | 44.68054 | 18.46486 | 35196 ft | 461 kts | 96° |
| 2026-04-15 11:09 | 44.67450 | 18.55455 | 35196 ft | 461 kts | 96° |
| 2026-04-15 11:09 | 44.66840 | 18.64431 | 35197 ft | 461 kts | 96° |
| 2026-04-15 11:10 | 44.66219 | 18.73401 | 35195 ft | 462 kts | 96° |
| 2026-04-15 11:10 | 44.65591 | 18.82382 | 35192 ft | 462 kts | 96° |
| 2026-04-15 11:11 | 44.64965 | 18.91372 | 35196 ft | 462 kts | 96° |
| 2026-04-15 11:11 | 44.64332 | 19.00358 | 35195 ft | 462 kts | 96° |
| 2026-04-15 11:12 | 44.63687 | 19.09332 | 35194 ft | 462 kts | 96° |
| 2026-04-15 11:12 | 44.63033 | 19.18304 | 35196 ft | 462 kts | 96° |
| 2026-04-15 11:13 | 44.62366 | 19.27271 | 35191 ft | 461 kts | 97° |
| 2026-04-15 11:13 | 44.61818 | 19.36226 | 35188 ft | 461 kts | 90° |
| 2026-04-15 11:14 | 44.62426 | 19.45197 | 35188 ft | 462 kts | 84° |
| 2026-04-15 11:14 | 44.63154 | 19.54163 | 35185 ft | 462 kts | 84° |
| 2026-04-15 11:15 | 44.63856 | 19.63132 | 35186 ft | 463 kts | 84° |
| 2026-04-15 11:15 | 44.64547 | 19.72133 | 35186 ft | 463 kts | 84° |
| 2026-04-15 11:16 | 44.65242 | 19.81134 | 35186 ft | 464 kts | 84° |
| 2026-04-15 11:16 | 44.65934 | 19.90154 | 35186 ft | 465 kts | 85° |
| 2026-04-15 11:17 | 44.66619 | 19.99176 | 35189 ft | 465 kts | 85° |
| 2026-04-15 11:17 | 44.67299 | 20.08201 | 35192 ft | 465 kts | 85° |
| 2026-04-15 11:18 | 44.67961 | 20.17237 | 35200 ft | 465 kts | 85° |
| 2026-04-15 11:18 | 44.68624 | 20.26281 | 35200 ft | 466 kts | 85° |
| 2026-04-15 11:19 | 44.69280 | 20.35338 | 35204 ft | 466 kts | 85° |
| 2026-04-15 11:19 | 44.69930 | 20.44403 | 35198 ft | 466 kts | 85° |
| 2026-04-15 11:20 | 44.70578 | 20.53474 | 35192 ft | 467 kts | 85° |
| 2026-04-15 11:20 | 44.71215 | 20.62564 | 35184 ft | 467 kts | 85° |
| 2026-04-15 11:21 | 44.71847 | 20.71658 | 35185 ft | 468 kts | 85° |
| 2026-04-15 11:21 | 44.72473 | 20.80764 | 35180 ft | 468 kts | 85° |
| 2026-04-15 11:22 | 44.73087 | 20.89880 | 35183 ft | 469 kts | 86° |
| 2026-04-15 11:22 | 44.73692 | 20.99005 | 35182 ft | 469 kts | 86° |
| 2026-04-15 11:23 | 44.74295 | 21.08139 | 35188 ft | 469 kts | 86° |
| 2026-04-15 11:23 | 44.74892 | 21.17268 | 35177 ft | 469 kts | 86° |
| 2026-04-15 11:24 | 44.75481 | 21.26406 | 35176 ft | 469 kts | 86° |
| 2026-04-15 11:24 | 44.76063 | 21.35558 | 35172 ft | 469 kts | 86° |
| 2026-04-15 11:25 | 44.76637 | 21.44714 | 35172 ft | 470 kts | 86° |
| 2026-04-15 11:25 | 44.77185 | 21.53888 | 35171 ft | 470 kts | 88° |
| 2026-04-15 11:26 | 44.77429 | 21.63083 | 35179 ft | 470 kts | 91° |
| 2026-04-15 11:26 | 44.77426 | 21.72273 | 35187 ft | 470 kts | 92° |
| 2026-04-15 11:27 | 44.77420 | 21.81452 | 35189 ft | 470 kts | 91° |
| 2026-04-15 11:27 | 44.77492 | 21.90657 | 35185 ft | 470 kts | 90° |
| 2026-04-15 11:28 | 44.77586 | 21.99841 | 35189 ft | 469 kts | 90° |
| 2026-04-15 11:28 | 44.77655 | 22.09033 | 35194 ft | 469 kts | 91° |
| 2026-04-15 11:29 | 44.77701 | 22.18226 | 35205 ft | 470 kts | 91° |
| 2026-04-15 11:29 | 44.77741 | 22.27415 | 35208 ft | 470 kts | 91° |
| 2026-04-15 11:30 | 44.77782 | 22.36605 | 35214 ft | 469 kts | 91° |
| 2026-04-15 11:30 | 44.77812 | 22.45788 | 35216 ft | 469 kts | 91° |
| 2026-04-15 11:31 | 44.77835 | 22.54943 | 35217 ft | 468 kts | 91° |
| 2026-04-15 11:31 | 44.77849 | 22.64109 | 35220 ft | 468 kts | 91° |
| 2026-04-15 11:32 | 44.77856 | 22.73238 | 35222 ft | 467 kts | 91° |
| 2026-04-15 11:32 | 44.77858 | 22.82401 | 35219 ft | 467 kts | 91° |
| 2026-04-15 11:33 | 44.77856 | 22.91546 | 35218 ft | 468 kts | 91° |
| 2026-04-15 11:33 | 44.77840 | 23.00706 | 35217 ft | 468 kts | 91° |
| 2026-04-15 11:34 | 44.77818 | 23.09858 | 35220 ft | 468 kts | 91° |
| 2026-04-15 11:34 | 44.77788 | 23.19037 | 35219 ft | 468 kts | 91° |
| 2026-04-15 11:35 | 44.77756 | 23.28206 | 35222 ft | 468 kts | 91° |
| 2026-04-15 11:35 | 44.77718 | 23.37368 | 35220 ft | 468 kts | 91° |
| 2026-04-15 11:36 | 44.77329 | 23.46516 | 35168 ft | 469 kts | 97° |
| 2026-04-15 11:36 | 44.76972 | 23.51089 | 34988 ft | 470 kts | 97° |
| 2026-04-15 11:36 | 44.76597 | 23.55644 | 34749 ft | 469 kts | 97° |
| 2026-04-15 11:37 | 44.76209 | 23.60201 | 34513 ft | 469 kts | 97° |
| 2026-04-15 11:37 | 44.75818 | 23.64753 | 34277 ft | 469 kts | 97° |
| 2026-04-15 11:37 | 44.75425 | 23.69319 | 33716 ft | 471 kts | 97° |
| 2026-04-15 11:37 | 44.75031 | 23.73922 | 32832 ft | 476 kts | 97° |
| 2026-04-15 11:38 | 44.74635 | 23.78569 | 31992 ft | 480 kts | 97° |
| 2026-04-15 11:38 | 44.74239 | 23.83247 | 31133 ft | 484 kts | 97° |
| 2026-04-15 11:38 | 44.73843 | 23.87947 | 30148 ft | 490 kts | 97° |
| 2026-04-15 11:38 | 44.73437 | 23.92754 | 29104 ft | 495 kts | 97° |
| 2026-04-15 11:39 | 44.73028 | 23.97579 | 28109 ft | 497 kts | 97° |
| 2026-04-15 11:39 | 44.72614 | 24.02416 | 27019 ft | 501 kts | 97° |
| 2026-04-15 11:39 | 44.72196 | 24.07263 | 26426 ft | 495 kts | 97° |
| 2026-04-15 11:39 | 44.71780 | 24.12046 | 25704 ft | 491 kts | 97° |
| 2026-04-15 11:40 | 44.71364 | 24.16792 | 25008 ft | 489 kts | 97° |
| 2026-04-15 11:40 | 44.70945 | 24.21524 | 24305 ft | 486 kts | 97° |
| 2026-04-15 11:40 | 44.70526 | 24.26225 | 23588 ft | 483 kts | 97° |
| 2026-04-15 11:40 | 44.70112 | 24.30867 | 22882 ft | 477 kts | 97° |
| 2026-04-15 11:41 | 44.69699 | 24.35473 | 22200 ft | 471 kts | 97° |
| 2026-04-15 11:41 | 44.69293 | 24.40005 | 21536 ft | 465 kts | 97° |
| 2026-04-15 11:41 | 44.68889 | 24.44493 | 20878 ft | 460 kts | 97° |
| 2026-04-15 11:41 | 44.68492 | 24.48927 | 20227 ft | 454 kts | 97° |
| 2026-04-15 11:42 | 44.68099 | 24.53299 | 19622 ft | 449 kts | 97° |
| 2026-04-15 11:42 | 44.67832 | 24.56229 | 19205 ft | 445 kts | 98° |
| 2026-04-15 11:42 | 44.67439 | 24.60513 | 18633 ft | 439 kts | 98° |
| 2026-04-15 11:42 | 44.66924 | 24.66090 | 17836 ft | 431 kts | 98° |
| 2026-04-15 11:43 | 44.66665 | 24.68899 | 17470 ft | 426 kts | 98° |
| 2026-04-15 11:43 | 44.66291 | 24.72938 | 16941 ft | 421 kts | 98° |
| 2026-04-15 11:43 | 44.65913 | 24.76999 | 16405 ft | 416 kts | 98° |
| 2026-04-15 11:43 | 44.65536 | 24.81013 | 15860 ft | 413 kts | 98° |
| 2026-04-15 11:44 | 44.65161 | 24.84988 | 15319 ft | 409 kts | 98° |
| 2026-04-15 11:44 | 44.64788 | 24.88942 | 14762 ft | 407 kts | 98° |
| 2026-04-15 11:44 | 44.64421 | 24.92861 | 14204 ft | 404 kts | 98° |
| 2026-04-15 11:44 | 44.64052 | 24.96763 | 13594 ft | 402 kts | 98° |
| 2026-04-15 11:45 | 44.63686 | 25.00614 | 13026 ft | 397 kts | 98° |
| 2026-04-15 11:45 | 44.63317 | 25.04499 | 12427 ft | 393 kts | 98° |
| 2026-04-15 11:45 | 44.62960 | 25.08233 | 11850 ft | 389 kts | 98° |
| 2026-04-15 11:45 | 44.62602 | 25.11972 | 11276 ft | 385 kts | 98° |
| 2026-04-15 11:46 | 44.62249 | 25.15629 | 11067 ft | 370 kts | 98° |
| 2026-04-15 11:46 | 44.61908 | 25.19128 | 10940 ft | 354 kts | 98° |
| 2026-04-15 11:46 | 44.61580 | 25.22474 | 10817 ft | 339 kts | 98° |
| 2026-04-15 11:46 | 44.61258 | 25.25734 | 10695 ft | 326 kts | 98° |
| 2026-04-15 11:47 | 44.60958 | 25.28781 | 10576 ft | 314 kts | 98° |
| 2026-04-15 11:47 | 44.60664 | 25.31762 | 10456 ft | 303 kts | 98° |
| 2026-04-15 11:47 | 44.60381 | 25.34645 | 10267 ft | 295 kts | 98° |
| 2026-04-15 11:47 | 44.60105 | 25.37456 | 10104 ft | 289 kts | 98° |
| 2026-04-15 11:48 | 44.59825 | 25.40282 | 9663 ft | 292 kts | 98° |
| 2026-04-15 11:48 | 44.59545 | 25.43098 | 9292 ft | 291 kts | 98° |
| 2026-04-15 11:48 | 44.59265 | 25.45906 | 8925 ft | 290 kts | 98° |
| 2026-04-15 11:48 | 44.58987 | 25.48706 | 8573 ft | 289 kts | 98° |
| 2026-04-15 11:49 | 44.58708 | 25.51538 | 8212 ft | 288 kts | 98° |
| 2026-04-15 11:49 | 44.58438 | 25.54269 | 7870 ft | 287 kts | 98° |
| 2026-04-15 11:49 | 44.58162 | 25.57035 | 7528 ft | 285 kts | 98° |
| 2026-04-15 11:49 | 44.57888 | 25.59740 | 7168 ft | 273 kts | 98° |
| 2026-04-15 11:50 | 44.57628 | 25.62298 | 6823 ft | 257 kts | 98° |
| 2026-04-15 11:50 | 44.57384 | 25.64712 | 6481 ft | 244 kts | 98° |
| 2026-04-15 11:50 | 44.57148 | 25.67054 | 6112 ft | 237 kts | 97° |
| 2026-04-15 11:50 | 44.56916 | 25.69348 | 5763 ft | 240 kts | 97° |
| 2026-04-15 11:51 | 44.56683 | 25.71647 | 5411 ft | 242 kts | 97° |
| 2026-04-15 11:51 | 44.56442 | 25.74009 | 5057 ft | 242 kts | 98° |
| 2026-04-15 11:51 | 44.56205 | 25.76324 | 4701 ft | 244 kts | 98° |
| 2026-04-15 11:51 | 44.55963 | 25.78688 | 4340 ft | 247 kts | 98° |
| 2026-04-15 11:52 | 44.55724 | 25.81084 | 4009 ft | 244 kts | 94° |
| 2026-04-15 11:52 | 44.55717 | 25.83304 | 3860 ft | 224 kts | 86° |
| 2026-04-15 11:52 | 44.55874 | 25.85420 | 3577 ft | 212 kts | 83° |
| 2026-04-15 11:52 | 44.56038 | 25.87410 | 3329 ft | 196 kts | 84° |
| 2026-04-15 11:53 | 44.56184 | 25.89251 | 3058 ft | 187 kts | 84° |
| 2026-04-15 11:53 | 44.56321 | 25.91009 | 2815 ft | 176 kts | 84° |
| 2026-04-15 11:53 | 44.56452 | 25.92676 | 2599 ft | 170 kts | 85° |
| 2026-04-15 11:53 | 44.56578 | 25.94312 | 2364 ft | 163 kts | 84° |
| 2026-04-15 11:54 | 44.56698 | 25.95853 | 2158 ft | 153 kts | 84° |
| 2026-04-15 11:54 | 44.56809 | 25.97300 | 1936 ft | 146 kts | 85° |
| 2026-04-15 11:54 | 44.56916 | 25.98692 | 1737 ft | 143 kts | 84° |
| 2026-04-15 11:54 | 44.57019 | 26.00071 | 1488 ft | 142 kts | 85° |
| 2026-04-15 11:55 | 44.57123 | 26.01440 | 1336 ft | 142 kts | 85° |
| 2026-04-15 11:55 | 44.57235 | 26.02821 | 1164 ft | 142 kts | 84° |
| 2026-04-15 11:55 | 44.57340 | 26.04203 | 959 ft | 142 kts | 83° |
| 2026-04-15 11:55 | 44.57447 | 26.05576 | 742 ft | 142 kts | 83° |
| 2026-04-15 11:56 | 44.57553 | 26.06942 | 579 ft | 140 kts | 82° |
| 2026-04-15 11:56 | 44.57650 | 26.08298 | 376 ft | 139 kts | 83° |
| 2026-04-15 11:56 | 44.57742 | 26.09544 | 322 ft | 110 kts | 82° |
| 2026-04-15 11:56 | 44.57808 | 26.10374 | 323 ft | 61 kts | 84° |
| 2026-04-15 11:57 | 44.57833 | 26.10765 | 323 ft | 31 kts | 91° |
| 2026-04-15 11:57 | 44.57730 | 26.11164 | 322 ft | 11 kts | 161° |
| 2026-04-15 11:57 | 44.57689 | 26.11087 | 322 ft | 12 kts | 260° |
| 2026-04-15 11:58 | 44.57679 | 26.10968 | 322 ft | 13 kts | 264° |
| 2026-04-15 11:58 | 44.57669 | 26.10827 | 322 ft | 16 kts | 264° |
| 2026-04-15 11:58 | 44.57656 | 26.10663 | 322 ft | 18 kts | 264° |
| 2026-04-15 11:58 | 44.57642 | 26.10480 | 322 ft | 19 kts | 264° |
| 2026-04-15 11:59 | 44.57628 | 26.10288 | 322 ft | 20 kts | 264° |
| 2026-04-15 11:59 | 44.57613 | 26.10087 | 322 ft | 21 kts | 264° |
| 2026-04-15 11:59 | 44.57597 | 26.09876 | 322 ft | 22 kts | 264° |
| 2026-04-15 11:59 | 44.57580 | 26.09658 | 322 ft | 23 kts | 264° |
| 2026-04-15 12:00 | 44.57563 | 26.09433 | 323 ft | 22 kts | 264° |
| 2026-04-15 12:00 | 44.57551 | 26.09269 | 322 ft | 16 kts | 264° |
| 2026-04-15 12:00 | 44.57539 | 26.09105 | 321 ft | 17 kts | 264° |
| 2026-04-15 12:00 | 44.57526 | 26.08930 | 323 ft | 18 kts | 264° |
| 2026-04-15 12:01 | 44.57512 | 26.08749 | 323 ft | 19 kts | 264° |
| 2026-04-15 12:01 | 44.57497 | 26.08559 | 323 ft | 17 kts | 264° |
| 2026-04-15 12:01 | 44.57447 | 26.08474 | 323 ft | 12 kts | 180° |
| 2026-04-15 12:01 | 44.57358 | 26.08487 | 323 ft | 13 kts | 175° |
| 2026-04-15 12:02 | 44.57260 | 26.08500 | 323 ft | 15 kts | 174° |
| 2026-04-15 12:02 | 44.57155 | 26.08516 | 323 ft | 16 kts | 174° |
| 2026-04-15 12:02 | 44.57041 | 26.08533 | 323 ft | 17 kts | 174° |
| 2026-04-15 12:02 | 44.56932 | 26.08547 | 322 ft | 12 kts | 180° |
| 2026-04-15 12:03 | 44.56895 | 26.08466 | 323 ft | 11 kts | 270° |
| 2026-04-15 12:03 | 44.56938 | 26.08380 | 323 ft | 12 kts | 312° |
| 2026-04-15 12:03 | 44.56946 | 26.08267 | 321 ft | 13 kts | 264° |
| 2026-04-15 12:03 | 44.56938 | 26.08155 | 323 ft | 12 kts | 264° |
| 2026-04-15 12:04 | 44.56930 | 26.08050 | 323 ft | 10 kts | 264° |
| 2026-04-15 12:04 | 44.56923 | 26.07954 | 322 ft | 8 kts | 264° |
| 2026-04-15 12:04 | 44.56928 | 26.07915 | 322 ft | 3 kts | 320° |
| 2026-04-15 12:04 | 44.56957 | 26.07909 | 322 ft | 5 kts | 353° |
| 2026-04-15 12:05 | 44.56994 | 26.07903 | 323 ft | 1 kts | 354° |
| 2026-04-15 12:05 | 44.56997 | 26.07903 | 322 ft | 0 kts | 354° |
| 2026-04-15 12:07 | 44.56999 | 26.07937 | 324 ft | 766 kts | 354° |
| 2026-04-15 12:07 | 44.56996 | 26.07895 | 323 ft | 0 kts | 354° |